sensor_id;sensor_type;location;lat;lon;timestamp;pressure;altitude;pressure_sealevel;temperature;humidity
37078;BME280;22989;55.998;37.212;2024-03-02T00:00:14;41588.63;;;-145.39;53.22
37078;BME280;22989;55.998;37.212;2024-03-02T00:02:44;41582.78;;;-145.39;53.23
37078;BME280;22989;55.998;37.212;2024-03-02T00:05:15;41584.72;;;-145.39;53.10
37078;BME280;22989;55.998;37.212;2024-03-02T00:07:52;41576.91;;;-145.39;53.16
37078;BME280;22989;55.998;37.212;2024-03-02T00:10:37;41574.97;;;-145.39;53.24
37078;BME280;22989;55.998;37.212;2024-03-02T00:13:07;41573.03;;;-145.39;53.35
37078;BME280;22989;55.998;37.212;2024-03-02T00:15:50;41553.50;;;-145.39;53.39
37078;BME280;22989;55.998;37.212;2024-03-02T00:18:23;41567.16;;;-145.39;53.11
37078;BME280;22989;55.998;37.212;2024-03-02T00:20:53;41563.25;;;-145.39;53.26
37078;BME280;22989;55.998;37.212;2024-03-02T00:23:20;41565.22;;;-145.39;53.22
37078;BME280;22989;55.998;37.212;2024-03-02T00:25:48;41571.06;;;-145.39;53.30
37078;BME280;22989;55.998;37.212;2024-03-02T00:28:17;41604.25;;;-145.39;53.17
37078;BME280;22989;55.998;37.212;2024-03-02T00:33:33;41576.91;;;-145.39;53.27
37078;BME280;22989;55.998;37.212;2024-03-02T00:35:59;41586.69;;;-145.39;53.34
37078;BME280;22989;55.998;37.212;2024-03-02T00:38:27;41557.41;;;-145.39;53.42
37078;BME280;22989;55.998;37.212;2024-03-02T00:40:54;41604.25;;;-145.39;53.33
37078;BME280;22989;55.998;37.212;2024-03-02T00:43:39;41608.16;;;-145.39;53.32
37078;BME280;22989;55.998;37.212;2024-03-02T00:46:07;41565.22;;;-145.39;53.35
37078;BME280;22989;55.998;37.212;2024-03-02T00:48:33;41584.72;;;-145.39;53.34
37078;BME280;22989;55.998;37.212;2024-03-02T00:51:03;41614.00;;;-145.39;53.55
37078;BME280;22989;55.998;37.212;2024-03-02T00:53:30;41598.41;;;-145.39;53.45
37078;BME280;22989;55.998;37.212;2024-03-02T00:55:57;41584.72;;;-145.39;53.49
37078;BME280;22989;55.998;37.212;2024-03-02T00:58:22;41592.53;;;-145.39;53.56
37078;BME280;22989;55.998;37.212;2024-03-02T01:00:48;41596.44;;;-145.39;53.65
37078;BME280;22989;55.998;37.212;2024-03-02T01:03:13;41615.97;;;-145.39;53.59
37078;BME280;22989;55.998;37.212;2024-03-02T01:05:42;41656.97;;;-145.39;53.63
37078;BME280;22989;55.998;37.212;2024-03-02T01:08:11;41592.53;;;-145.39;53.59
37078;BME280;22989;55.998;37.212;2024-03-02T01:10:37;41619.88;;;-145.39;53.68
37078;BME280;22989;55.998;37.212;2024-03-02T01:13:02;41655.00;;;-145.39;53.65
37078;BME280;22989;55.998;37.212;2024-03-02T01:15:28;41639.38;;;-145.39;53.62
37078;BME280;22989;55.998;37.212;2024-03-02T01:17:54;41633.53;;;-145.39;53.72
37078;BME280;22989;55.998;37.212;2024-03-02T01:20:19;41635.50;;;-145.39;53.86
37078;BME280;22989;55.998;37.212;2024-03-02T01:22:45;41600.34;;;-145.39;53.83
37078;BME280;22989;55.998;37.212;2024-03-02T01:25:10;41608.16;;;-145.39;53.71
37078;BME280;22989;55.998;37.212;2024-03-02T01:27:36;41647.19;;;-145.39;53.79
37078;BME280;22989;55.998;37.212;2024-03-02T01:30:01;41631.59;;;-145.39;53.81
37078;BME280;22989;55.998;37.212;2024-03-02T01:32:27;41604.25;;;-145.39;53.86
37078;BME280;22989;55.998;37.212;2024-03-02T01:34:52;41565.22;;;-145.39;53.91
37078;BME280;22989;55.998;37.212;2024-03-02T01:37:18;41576.91;;;-145.39;53.89
37078;BME280;22989;55.998;37.212;2024-03-02T01:39:43;41608.16;;;-145.39;53.80
37078;BME280;22989;55.998;37.212;2024-03-02T01:42:09;41615.97;;;-145.39;53.94
37078;BME280;22989;55.998;37.212;2024-03-02T01:44:36;41612.06;;;-145.39;53.76
37078;BME280;22989;55.998;37.212;2024-03-02T01:47:02;41623.78;;;-145.39;53.91
37078;BME280;22989;55.998;37.212;2024-03-02T01:49:27;41600.34;;;-145.39;54.03
37078;BME280;22989;55.998;37.212;2024-03-02T01:51:53;41647.19;;;-145.39;53.88
37078;BME280;22989;55.998;37.212;2024-03-02T01:54:18;41604.25;;;-145.39;53.97
37078;BME280;22989;55.998;37.212;2024-03-02T01:56:44;41627.69;;;-145.39;54.02
37078;BME280;22989;55.998;37.212;2024-03-02T01:59:10;41653.06;;;-145.39;54.00
37078;BME280;22989;55.998;37.212;2024-03-02T02:01:36;41645.25;;;-145.39;54.07
37078;BME280;22989;55.998;37.212;2024-03-02T02:04:02;41602.31;;;-145.39;54.10
37078;BME280;22989;55.998;37.212;2024-03-02T02:06:27;41617.91;;;-145.39;53.98
37078;BME280;22989;55.998;37.212;2024-03-02T02:08:53;41598.41;;;-145.39;53.88
37078;BME280;22989;55.998;37.212;2024-03-02T02:11:18;41662.81;;;-145.39;53.80
37078;BME280;22989;55.998;37.212;2024-03-02T02:13:44;41635.50;;;-145.39;53.77
37078;BME280;22989;55.998;37.212;2024-03-02T02:16:10;41662.81;;;-145.39;53.95
37078;BME280;22989;55.998;37.212;2024-03-02T02:18:35;41641.34;;;-145.39;53.81
37078;BME280;22989;55.998;37.212;2024-03-02T02:21:02;41651.09;;;-145.39;54.10
37078;BME280;22989;55.998;37.212;2024-03-02T02:23:28;41623.78;;;-145.39;54.14
37078;BME280;22989;55.998;37.212;2024-03-02T02:25:54;41649.16;;;-145.39;54.11
37078;BME280;22989;55.998;37.212;2024-03-02T02:28:20;41647.19;;;-145.39;54.23
37078;BME280;22989;55.998;37.212;2024-03-02T02:30:45;41594.50;;;-145.39;54.29
37078;BME280;22989;55.998;37.212;2024-03-02T02:33:11;41643.28;;;-145.39;54.22
37078;BME280;22989;55.998;37.212;2024-03-02T02:35:37;41606.19;;;-145.39;54.20
37078;BME280;22989;55.998;37.212;2024-03-02T02:38:03;41647.19;;;-145.39;54.24
37078;BME280;22989;55.998;37.212;2024-03-02T02:40:29;41625.72;;;-145.39;54.09
37078;BME280;22989;55.998;37.212;2024-03-02T02:42:57;41639.38;;;-145.39;54.20
37078;BME280;22989;55.998;37.212;2024-03-02T02:45:24;41606.19;;;-145.39;54.25
37078;BME280;22989;55.998;37.212;2024-03-02T02:47:50;41629.63;;;-145.39;54.27
37078;BME280;22989;55.998;37.212;2024-03-02T02:50:15;41608.16;;;-145.39;54.34
37078;BME280;22989;55.998;37.212;2024-03-02T02:52:41;41645.25;;;-145.39;54.36
37078;BME280;22989;55.998;37.212;2024-03-02T02:55:09;41592.53;;;-145.39;54.24
37078;BME280;22989;55.998;37.212;2024-03-02T02:57:35;41643.28;;;-145.39;54.23
37078;BME280;22989;55.998;37.212;2024-03-02T03:02:39;41641.34;;;-145.39;54.36
37078;BME280;22989;55.998;37.212;2024-03-02T03:05:05;41617.91;;;-145.39;54.44
37078;BME280;22989;55.998;37.212;2024-03-02T03:07:32;41637.44;;;-145.39;54.37
37078;BME280;22989;55.998;37.212;2024-03-02T03:09:59;41633.53;;;-145.39;54.54
37078;BME280;22989;55.998;37.212;2024-03-02T03:12:24;41633.53;;;-145.39;54.47
37078;BME280;22989;55.998;37.212;2024-03-02T03:14:50;41651.09;;;-145.39;54.55
37078;BME280;22989;55.998;37.212;2024-03-02T03:17:15;41692.09;;;-145.39;54.40
37078;BME280;22989;55.998;37.212;2024-03-02T03:19:42;41584.72;;;-145.39;54.62
37078;BME280;22989;55.998;37.212;2024-03-02T03:22:08;41647.19;;;-145.39;54.64
37078;BME280;22989;55.998;37.212;2024-03-02T03:24:33;41668.66;;;-145.39;54.73
37078;BME280;22989;55.998;37.212;2024-03-02T03:26:59;41656.97;;;-145.39;54.76
37078;BME280;22989;55.998;37.212;2024-03-02T03:29:24;41668.66;;;-145.39;54.56
37078;BME280;22989;55.998;37.212;2024-03-02T03:31:50;41674.53;;;-145.39;54.71
37078;BME280;22989;55.998;37.212;2024-03-02T03:34:15;41660.88;;;-145.39;54.61
37078;BME280;22989;55.998;37.212;2024-03-02T03:36:42;41684.28;;;-145.39;54.73
37078;BME280;22989;55.998;37.212;2024-03-02T03:39:07;41651.09;;;-145.39;54.73
37078;BME280;22989;55.998;37.212;2024-03-02T03:41:33;41696.00;;;-145.39;54.91
37078;BME280;22989;55.998;37.212;2024-03-02T03:43:58;41664.78;;;-145.39;54.95
37078;BME280;22989;55.998;37.212;2024-03-02T03:46:24;41721.38;;;-145.39;54.78
37078;BME280;22989;55.998;37.212;2024-03-02T03:48:49;41711.63;;;-145.39;54.93
37078;BME280;22989;55.998;37.212;2024-03-02T03:51:15;41680.38;;;-145.39;55.03
37078;BME280;22989;55.998;37.212;2024-03-02T03:53:40;41723.34;;;-145.39;55.04
37078;BME280;22989;55.998;37.212;2024-03-02T03:56:06;41709.66;;;-145.39;55.01
37078;BME280;22989;55.998;37.212;2024-03-02T03:58:31;41735.03;;;-145.39;55.06
37078;BME280;22989;55.998;37.212;2024-03-02T04:00:57;41754.56;;;-145.39;55.13
37078;BME280;22989;55.998;37.212;2024-03-02T04:03:22;41791.66;;;-145.39;55.04
37078;BME280;22989;55.998;37.212;2024-03-02T04:05:48;41824.84;;;-145.39;55.02
37078;BME280;22989;55.998;37.212;2024-03-02T04:08:14;41865.84;;;-145.39;55.00
37078;BME280;22989;55.998;37.212;2024-03-02T04:10:39;41973.22;;;-145.39;55.20
37078;BME280;22989;55.998;37.212;2024-03-02T04:13:05;42084.50;;;-145.39;55.23
37078;BME280;22989;55.998;37.212;2024-03-02T04:15:31;42152.84;;;-145.39;55.25
37078;BME280;22989;55.998;37.212;2024-03-02T04:17:57;42217.28;;;-145.39;55.14
37078;BME280;22989;55.998;37.212;2024-03-02T04:20:22;42332.47;;;-145.39;55.18
37078;BME280;22989;55.998;37.212;2024-03-02T04:22:48;42437.91;;;-145.39;55.25
37078;BME280;22989;55.998;37.212;2024-03-02T04:25:14;42480.84;;;-145.39;55.25
37078;BME280;22989;55.998;37.212;2024-03-02T04:27:39;42582.41;;;-145.39;55.31
37078;BME280;22989;55.998;37.212;2024-03-02T04:30:05;42711.28;;;-145.39;55.29
37078;BME280;22989;55.998;37.212;2024-03-02T04:32:31;42771.81;;;-145.39;55.49
37078;BME280;22989;55.998;37.212;2024-03-02T04:34:57;42842.09;;;-145.39;55.54
37078;BME280;22989;55.998;37.212;2024-03-02T04:37:22;42896.78;;;-145.39;55.56
37078;BME280;22989;55.998;37.212;2024-03-02T04:39:48;42904.59;;;-145.39;55.66
37078;BME280;22989;55.998;37.212;2024-03-02T04:42:13;42984.66;;;-145.39;55.65
37078;BME280;22989;55.998;37.212;2024-03-02T04:44:39;43021.75;;;-145.39;55.62
37078;BME280;22989;55.998;37.212;2024-03-02T04:47:05;43066.66;;;-145.39;55.74
37078;BME280;22989;55.998;37.212;2024-03-02T04:49:30;43101.81;;;-145.39;55.63
37078;BME280;22989;55.998;37.212;2024-03-02T04:51:56;43107.69;;;-145.39;55.80
37078;BME280;22989;55.998;37.212;2024-03-02T04:54:22;43174.09;;;-145.39;55.90
37078;BME280;22989;55.998;37.212;2024-03-02T04:56:48;43211.19;;;-145.39;55.97
37078;BME280;22989;55.998;37.212;2024-03-02T04:59:17;43207.28;;;-145.39;56.00
37078;BME280;22989;55.998;37.212;2024-03-02T05:01:43;43248.28;;;-145.39;56.26
37078;BME280;22989;55.998;37.212;2024-03-02T05:04:09;43238.53;;;-145.39;56.11
37078;BME280;22989;55.998;37.212;2024-03-02T05:06:40;43271.72;;;-145.39;56.14
37078;BME280;22989;55.998;37.212;2024-03-02T05:09:07;43260.00;;;-145.39;56.21
37078;BME280;22989;55.998;37.212;2024-03-02T05:11:32;43256.09;;;-145.39;56.27
37078;BME280;22989;55.998;37.212;2024-03-02T05:14:05;43304.94;;;-145.39;56.32
37078;BME280;22989;55.998;37.212;2024-03-02T05:16:36;43381.09;;;-145.39;56.15
37078;BME280;22989;55.998;37.212;2024-03-02T05:19:04;43408.44;;;-145.39;56.54
37078;BME280;22989;55.998;37.212;2024-03-02T05:21:32;43410.38;;;-145.39;56.44
37078;BME280;22989;55.998;37.212;2024-03-02T05:23:58;43416.25;;;-145.39;56.54
37078;BME280;22989;55.998;37.212;2024-03-02T05:26:24;43453.34;;;-145.39;56.51
37078;BME280;22989;55.998;37.212;2024-03-02T05:28:50;43461.16;;;-145.39;56.49
37078;BME280;22989;55.998;37.212;2024-03-02T05:31:15;43508.03;;;-145.39;56.53
37078;BME280;22989;55.998;37.212;2024-03-02T05:33:42;43468.97;;;-145.39;56.63
37078;BME280;22989;55.998;37.212;2024-03-02T05:36:08;43496.31;;;-145.39;56.54
37078;BME280;22989;55.998;37.212;2024-03-02T05:38:37;43463.13;;;-145.39;56.59
37078;BME280;22989;55.998;37.212;2024-03-02T05:41:03;43502.19;;;-145.39;56.64
37078;BME280;22989;55.998;37.212;2024-03-02T05:43:29;43511.94;;;-145.39;56.54
37078;BME280;22989;55.998;37.212;2024-03-02T05:45:54;43572.50;;;-145.39;56.76
37078;BME280;22989;55.998;37.212;2024-03-02T05:48:20;43570.53;;;-145.39;56.62
37078;BME280;22989;55.998;37.212;2024-03-02T05:50:45;43568.59;;;-145.39;56.71
37078;BME280;22989;55.998;37.212;2024-03-02T05:53:11;43556.88;;;-145.39;56.73
37078;BME280;22989;55.998;37.212;2024-03-02T05:55:36;43588.13;;;-145.39;56.88
37078;BME280;22989;55.998;37.212;2024-03-02T05:58:02;43588.13;;;-145.39;57.11
37078;BME280;22989;55.998;37.212;2024-03-02T06:00:31;43580.31;;;-145.39;57.22
37078;BME280;22989;55.998;37.212;2024-03-02T06:02:56;43572.50;;;-145.39;57.39
37078;BME280;22989;55.998;37.212;2024-03-02T06:05:22;43552.97;;;-145.39;57.51
37078;BME280;22989;55.998;37.212;2024-03-02T06:07:47;43549.06;;;-145.39;57.61
37078;BME280;22989;55.998;37.212;2024-03-02T06:10:13;43549.06;;;-145.39;57.62
37078;BME280;22989;55.998;37.212;2024-03-02T06:12:40;43551.00;;;-145.39;57.75
37078;BME280;22989;55.998;37.212;2024-03-02T06:15:06;43521.72;;;-145.39;57.90
37078;BME280;22989;55.998;37.212;2024-03-02T06:17:32;43508.03;;;-145.39;58.07
37078;BME280;22989;55.998;37.212;2024-03-02T06:19:57;43517.81;;;-145.39;58.09
37078;BME280;22989;55.998;37.212;2024-03-02T06:22:23;43517.81;;;-145.39;58.02
37078;BME280;22989;55.998;37.212;2024-03-02T06:24:50;43488.50;;;-145.39;58.17
37078;BME280;22989;55.998;37.212;2024-03-02T06:27:16;43506.09;;;-145.39;58.14
37078;BME280;22989;55.998;37.212;2024-03-02T06:29:42;43515.84;;;-145.39;58.12
37078;BME280;22989;55.998;37.212;2024-03-02T06:32:07;43564.69;;;-145.39;58.04
37078;BME280;22989;55.998;37.212;2024-03-02T06:34:33;43576.41;;;-145.39;58.31
37078;BME280;22989;55.998;37.212;2024-03-02T06:36:59;43574.44;;;-145.39;58.33
37078;BME280;22989;55.998;37.212;2024-03-02T06:39:24;43570.53;;;-145.39;58.59
37078;BME280;22989;55.998;37.212;2024-03-02T06:41:51;43549.06;;;-145.39;58.44
37078;BME280;22989;55.998;37.212;2024-03-02T06:44:17;43549.06;;;-145.39;58.39
37078;BME280;22989;55.998;37.212;2024-03-02T06:46:42;43562.72;;;-145.39;58.59
37078;BME280;22989;55.998;37.212;2024-03-02T06:49:08;43590.06;;;-145.39;58.45
37078;BME280;22989;55.998;37.212;2024-03-02T06:51:35;43513.91;;;-145.39;58.60
37078;BME280;22989;55.998;37.212;2024-03-02T06:54:01;43511.94;;;-145.39;58.50
37078;BME280;22989;55.998;37.212;2024-03-02T06:56:26;43523.66;;;-145.39;58.49
37078;BME280;22989;55.998;37.212;2024-03-02T06:58:52;43502.19;;;-145.39;58.58
37078;BME280;22989;55.998;37.212;2024-03-02T07:01:17;43576.41;;;-145.39;58.72
37078;BME280;22989;55.998;37.212;2024-03-02T07:03:43;43556.88;;;-145.39;58.53
37078;BME280;22989;55.998;37.212;2024-03-02T07:06:09;43558.81;;;-145.39;58.52
37078;BME280;22989;55.998;37.212;2024-03-02T07:08:34;43611.56;;;-145.39;58.58
37078;BME280;22989;55.998;37.212;2024-03-02T07:11:00;43595.94;;;-145.39;58.42
37078;BME280;22989;55.998;37.212;2024-03-02T07:13:26;43638.91;;;-145.39;58.30
37078;BME280;22989;55.998;37.212;2024-03-02T07:15:52;43660.38;;;-145.39;58.43
37078;BME280;22989;55.998;37.212;2024-03-02T07:18:30;43654.53;;;-145.39;58.57
37078;BME280;22989;55.998;37.212;2024-03-02T07:20:56;43590.06;;;-145.39;58.58
37078;BME280;22989;55.998;37.212;2024-03-02T07:23:26;43592.03;;;-145.39;58.44
37078;BME280;22989;55.998;37.212;2024-03-02T07:25:57;43601.78;;;-145.39;58.41
37078;BME280;22989;55.998;37.212;2024-03-02T07:28:23;43644.75;;;-145.39;58.29
37078;BME280;22989;55.998;37.212;2024-03-02T07:31:02;43677.97;;;-145.39;58.11
37078;BME280;22989;55.998;37.212;2024-03-02T07:33:28;43705.31;;;-145.39;58.14
37078;BME280;22989;55.998;37.212;2024-03-02T07:35:54;43726.78;;;-145.39;58.25
37078;BME280;22989;55.998;37.212;2024-03-02T07:38:20;43689.69;;;-145.39;58.21
37078;BME280;22989;55.998;37.212;2024-03-02T07:40:47;43711.16;;;-145.39;58.26
37078;BME280;22989;55.998;37.212;2024-03-02T07:43:16;43707.25;;;-145.39;58.26
37078;BME280;22989;55.998;37.212;2024-03-02T07:45:42;43701.41;;;-145.39;58.13
37078;BME280;22989;55.998;37.212;2024-03-02T07:48:08;43717.03;;;-145.39;58.26
37078;BME280;22989;55.998;37.212;2024-03-02T07:50:33;43707.25;;;-145.39;58.15
37078;BME280;22989;55.998;37.212;2024-03-02T07:53:03;43697.50;;;-145.39;58.27
37078;BME280;22989;55.998;37.212;2024-03-02T07:55:33;43707.25;;;-145.39;58.31
37078;BME280;22989;55.998;37.212;2024-03-02T07:57:58;43685.78;;;-145.39;58.24
37078;BME280;22989;55.998;37.212;2024-03-02T08:00:25;43676.00;;;-145.39;58.17
37078;BME280;22989;55.998;37.212;2024-03-02T08:02:51;43720.94;;;-145.39;58.07
37078;BME280;22989;55.998;37.212;2024-03-02T08:05:17;43738.50;;;-145.39;57.84
37078;BME280;22989;55.998;37.212;2024-03-02T08:07:45;43750.22;;;-145.39;57.98
37078;BME280;22989;55.998;37.212;2024-03-02T08:10:11;43752.19;;;-145.39;58.00
37078;BME280;22989;55.998;37.212;2024-03-02T08:12:37;43779.53;;;-145.39;57.77
37078;BME280;22989;55.998;37.212;2024-03-02T08:15:03;43777.56;;;-145.39;57.78
37078;BME280;22989;55.998;37.212;2024-03-02T08:17:29;43740.47;;;-145.39;57.76
37078;BME280;22989;55.998;37.212;2024-03-02T08:19:55;43754.13;;;-145.39;57.82
37078;BME280;22989;55.998;37.212;2024-03-02T08:22:21;43756.09;;;-145.39;57.87
37078;BME280;22989;55.998;37.212;2024-03-02T08:24:47;43769.75;;;-145.39;57.78
37078;BME280;22989;55.998;37.212;2024-03-02T08:27:12;43726.78;;;-145.39;57.60
37078;BME280;22989;55.998;37.212;2024-03-02T08:29:38;43775.63;;;-145.39;57.51
37078;BME280;22989;55.998;37.212;2024-03-02T08:32:04;43769.75;;;-145.39;57.41
37078;BME280;22989;55.998;37.212;2024-03-02T08:34:30;43791.25;;;-145.39;57.41
37078;BME280;22989;55.998;37.212;2024-03-02T08:36:56;43797.13;;;-145.39;57.28
37078;BME280;22989;55.998;37.212;2024-03-02T08:39:21;43789.28;;;-145.39;57.49
37078;BME280;22989;55.998;37.212;2024-03-02T08:41:47;43783.44;;;-145.39;57.41
37078;BME280;22989;55.998;37.212;2024-03-02T08:44:13;43756.09;;;-145.39;57.33
37078;BME280;22989;55.998;37.212;2024-03-02T08:46:40;43793.22;;;-145.39;57.21
37078;BME280;22989;55.998;37.212;2024-03-02T08:49:06;43816.66;;;-145.39;57.10
37078;BME280;22989;55.998;37.212;2024-03-02T08:51:32;43830.31;;;-145.39;57.03
37078;BME280;22989;55.998;37.212;2024-03-02T08:53:58;43804.94;;;-145.39;56.75
37078;BME280;22989;55.998;37.212;2024-03-02T08:56:24;43832.28;;;-145.39;56.70
37078;BME280;22989;55.998;37.212;2024-03-02T08:58:50;43836.19;;;-145.39;56.70
37078;BME280;22989;55.998;37.212;2024-03-02T09:01:17;43855.72;;;-145.39;56.80
37078;BME280;22989;55.998;37.212;2024-03-02T09:03:43;43820.56;;;-145.39;56.49
37078;BME280;22989;55.998;37.212;2024-03-02T09:06:10;43855.72;;;-145.39;56.57
37078;BME280;22989;55.998;37.212;2024-03-02T09:08:36;43855.72;;;-145.39;56.58
37078;BME280;22989;55.998;37.212;2024-03-02T09:11:02;43838.13;;;-145.39;56.22
37078;BME280;22989;55.998;37.212;2024-03-02T09:13:29;43853.75;;;-145.39;56.17
37078;BME280;22989;55.998;37.212;2024-03-02T09:15:54;43814.69;;;-145.39;55.89
37078;BME280;22989;55.998;37.212;2024-03-02T09:18:20;43838.13;;;-145.39;55.81
37078;BME280;22989;55.998;37.212;2024-03-02T09:20:45;43797.13;;;-145.39;55.95
37078;BME280;22989;55.998;37.212;2024-03-02T09:23:12;43804.94;;;-145.39;55.73
37078;BME280;22989;55.998;37.212;2024-03-02T09:25:37;43804.94;;;-145.39;55.63
37078;BME280;22989;55.998;37.212;2024-03-02T09:28:03;43826.41;;;-145.39;55.38
37078;BME280;22989;55.998;37.212;2024-03-02T09:30:29;43818.59;;;-145.39;55.17
37078;BME280;22989;55.998;37.212;2024-03-02T09:32:54;43847.91;;;-145.39;54.93
37078;BME280;22989;55.998;37.212;2024-03-02T09:35:20;43820.56;;;-145.39;55.05
37078;BME280;22989;55.998;37.212;2024-03-02T09:37:45;43822.50;;;-145.39;55.03
37078;BME280;22989;55.998;37.212;2024-03-02T09:40:12;43808.84;;;-145.39;54.71
37078;BME280;22989;55.998;37.212;2024-03-02T09:42:38;43820.56;;;-145.39;54.59
37078;BME280;22989;55.998;37.212;2024-03-02T09:45:05;43857.66;;;-145.39;54.45
37078;BME280;22989;55.998;37.212;2024-03-02T09:47:30;43877.19;;;-145.39;54.51
37078;BME280;22989;55.998;37.212;2024-03-02T09:49:56;43845.94;;;-145.39;54.57
37078;BME280;22989;55.998;37.212;2024-03-02T09:52:22;43802.97;;;-145.39;54.81
37078;BME280;22989;55.998;37.212;2024-03-02T09:54:48;43787.34;;;-145.39;54.61
37078;BME280;22989;55.998;37.212;2024-03-02T09:57:15;43791.25;;;-145.39;54.22
37078;BME280;22989;55.998;37.212;2024-03-02T09:59:40;43824.47;;;-145.39;54.11
37078;BME280;22989;55.998;37.212;2024-03-02T10:02:06;43855.72;;;-145.39;53.98
37078;BME280;22989;55.998;37.212;2024-03-02T10:04:33;43838.13;;;-145.39;53.98
37078;BME280;22989;55.998;37.212;2024-03-02T10:07:17;43855.72;;;-145.39;53.56
37078;BME280;22989;55.998;37.212;2024-03-02T10:09:48;43863.53;;;-145.39;53.48
37078;BME280;22989;55.998;37.212;2024-03-02T10:12:16;43877.19;;;-145.39;53.48
37078;BME280;22989;55.998;37.212;2024-03-02T10:14:42;43802.97;;;-145.39;53.46
37078;BME280;22989;55.998;37.212;2024-03-02T10:17:10;43816.66;;;-145.39;53.39
37078;BME280;22989;55.998;37.212;2024-03-02T10:19:37;43820.56;;;-145.39;53.15
37078;BME280;22989;55.998;37.212;2024-03-02T10:22:04;43810.78;;;-145.39;53.11
37078;BME280;22989;55.998;37.212;2024-03-02T10:24:42;43791.25;;;-145.39;53.10
37078;BME280;22989;55.998;37.212;2024-03-02T10:29:38;43732.66;;;-145.39;52.91
37078;BME280;22989;55.998;37.212;2024-03-02T10:32:05;43760.00;;;-145.39;52.88
37078;BME280;22989;55.998;37.212;2024-03-02T10:34:31;43748.28;;;-145.39;52.54
37078;BME280;22989;55.998;37.212;2024-03-02T10:36:58;43771.72;;;-145.39;52.29
37078;BME280;22989;55.998;37.212;2024-03-02T10:39:24;43758.03;;;-145.39;52.28
37078;BME280;22989;55.998;37.212;2024-03-02T10:41:52;43769.75;;;-145.39;52.19
37078;BME280;22989;55.998;37.212;2024-03-02T10:44:18;43756.09;;;-145.39;52.17
37078;BME280;22989;55.998;37.212;2024-03-02T10:46:45;43744.38;;;-145.39;51.99
37078;BME280;22989;55.998;37.212;2024-03-02T10:49:12;43773.66;;;-145.39;51.91
37078;BME280;22989;55.998;37.212;2024-03-02T10:51:38;43740.47;;;-145.39;51.88
37078;BME280;22989;55.998;37.212;2024-03-02T10:54:04;43797.13;;;-145.39;51.74
37078;BME280;22989;55.998;37.212;2024-03-02T10:56:31;43765.84;;;-145.39;51.57
37078;BME280;22989;55.998;37.212;2024-03-02T10:59:10;43812.75;;;-145.39;51.50
37078;BME280;22989;55.998;37.212;2024-03-02T11:01:39;43760.00;;;-145.39;51.44
37078;BME280;22989;55.998;37.212;2024-03-02T11:04:08;43816.66;;;-145.39;51.41
37078;BME280;22989;55.998;37.212;2024-03-02T11:06:35;43859.63;;;-145.39;50.91
37078;BME280;22989;55.998;37.212;2024-03-02T11:09:06;43869.38;;;-145.39;51.07
37078;BME280;22989;55.998;37.212;2024-03-02T11:11:37;43828.38;;;-145.39;50.95
37078;BME280;22989;55.998;37.212;2024-03-02T11:14:07;43844.00;;;-145.39;50.97
37078;BME280;22989;55.998;37.212;2024-03-02T11:16:38;43828.38;;;-145.39;51.21
37078;BME280;22989;55.998;37.212;2024-03-02T11:19:13;43822.50;;;-145.39;51.19
37078;BME280;22989;55.998;37.212;2024-03-02T11:21:39;43824.47;;;-145.39;51.07
37078;BME280;22989;55.998;37.212;2024-03-02T11:26:50;43787.34;;;-145.39;51.29
37078;BME280;22989;55.998;37.212;2024-03-02T11:32:12;43789.28;;;-145.39;51.00
37078;BME280;22989;55.998;37.212;2024-03-02T11:34:41;43760.00;;;-145.39;50.81
37078;BME280;22989;55.998;37.212;2024-03-02T11:37:11;43734.59;;;-145.39;50.95
37078;BME280;22989;55.998;37.212;2024-03-02T11:39:38;43769.75;;;-145.39;50.86
37078;BME280;22989;55.998;37.212;2024-03-02T11:42:07;43763.91;;;-145.39;50.90
37078;BME280;22989;55.998;37.212;2024-03-02T11:44:37;43756.09;;;-145.39;50.88
37078;BME280;22989;55.998;37.212;2024-03-02T11:47:07;43781.47;;;-145.39;50.80
37078;BME280;22989;55.998;37.212;2024-03-02T11:49:50;43767.81;;;-145.39;50.80
37078;BME280;22989;55.998;37.212;2024-03-02T11:52:17;43697.50;;;-145.39;50.78
37078;BME280;22989;55.998;37.212;2024-03-02T11:54:46;43728.75;;;-145.39;50.68
37078;BME280;22989;55.998;37.212;2024-03-02T11:57:16;43761.94;;;-145.39;50.63
37078;BME280;22989;55.998;37.212;2024-03-02T11:59:43;43726.78;;;-145.39;50.74
37078;BME280;22989;55.998;37.212;2024-03-02T12:02:19;43758.03;;;-145.39;50.81
37078;BME280;22989;55.998;37.212;2024-03-02T12:04:46;43724.84;;;-145.39;50.74
37078;BME280;22989;55.998;37.212;2024-03-02T12:07:22;43728.75;;;-145.39;50.70
37078;BME280;22989;55.998;37.212;2024-03-02T12:10:01;43756.09;;;-145.39;50.83
37078;BME280;22989;55.998;37.212;2024-03-02T12:12:30;43744.38;;;-145.39;50.81
37078;BME280;22989;55.998;37.212;2024-03-02T12:14:56;43691.63;;;-145.39;50.73
37078;BME280;22989;55.998;37.212;2024-03-02T12:17:22;43658.44;;;-145.39;50.68
37078;BME280;22989;55.998;37.212;2024-03-02T12:19:48;43636.94;;;-145.39;50.61
37078;BME280;22989;55.998;37.212;2024-03-02T12:22:14;43615.47;;;-145.39;50.41
37078;BME280;22989;55.998;37.212;2024-03-02T12:24:41;43668.19;;;-145.39;50.40
37078;BME280;22989;55.998;37.212;2024-03-02T12:27:07;43670.16;;;-145.39;50.35
37078;BME280;22989;55.998;37.212;2024-03-02T12:29:33;43664.28;;;-145.39;50.35
37078;BME280;22989;55.998;37.212;2024-03-02T12:31:59;43668.19;;;-145.39;50.36
37078;BME280;22989;55.998;37.212;2024-03-02T12:34:26;43691.63;;;-145.39;50.36
37078;BME280;22989;55.998;37.212;2024-03-02T12:36:51;43707.25;;;-145.39;50.24
37078;BME280;22989;55.998;37.212;2024-03-02T12:39:19;43699.44;;;-145.39;50.26
37078;BME280;22989;55.998;37.212;2024-03-02T12:41:49;43699.44;;;-145.39;50.21